sensor_id;sensor_type;location;lat;lon;timestamp;pressure;altitude;pressure_sealevel;temperature;humidity
33280;BME280;20403;43.114;12.434;2023-08-07T00:01:43;98633.28;;;17.40;100.00
33280;BME280;20403;43.114;12.434;2023-08-07T00:04:09;98630.78;;;17.25;100.00
33280;BME280;20403;43.114;12.434;2023-08-07T00:06:34;98633.72;;;17.18;100.00
33280;BME280;20403;43.114;12.434;2023-08-07T00:09:00;98633.00;;;17.07;100.00
33280;BME280;20403;43.114;12.434;2023-08-07T00:11:25;98637.56;;;17.01;100.00
33280;BME280;20403;43.114;12.434;2023-08-07T00:13:53;98629.66;;;17.01;100.00
33280;BME280;20403;43.114;12.434;2023-08-07T00:16:18;98627.88;;;16.92;100.00
33280;BME280;20403;43.114;12.434;2023-08-07T00:18:43;98625.19;;;16.97;100.00
33280;BME280;20403;43.114;12.434;2023-08-07T00:21:09;98630.75;;;16.95;100.00
33280;BME280;20403;43.114;12.434;2023-08-07T00:23:34;98624.47;;;16.86;100.00
33280;BME280;20403;43.114;12.434;2023-08-07T00:26:00;98626.06;;;16.87;100.00
33280;BME280;20403;43.114;12.434;2023-08-07T00:28:25;98621.66;;;16.72;100.00
33280;BME280;20403;43.114;12.434;2023-08-07T00:30:50;98629.84;;;16.66;100.00
33280;BME280;20403;43.114;12.434;2023-08-07T00:33:16;98627.78;;;16.63;100.00
33280;BME280;20403;43.114;12.434;2023-08-07T00:35:41;98615.81;;;16.86;100.00
33280;BME280;20403;43.114;12.434;2023-08-07T00:38:07;98616.28;;;16.93;100.00
33280;BME280;20403;43.114;12.434;2023-08-07T00:40:39;98613.41;;;16.89;100.00
33280;BME280;20403;43.114;12.434;2023-08-07T00:43:05;98618.69;;;16.84;100.00
33280;BME280;20403;43.114;12.434;2023-08-07T00:45:35;98608.47;;;16.83;100.00
33280;BME280;20403;43.114;12.434;2023-08-07T00:48:02;98604.81;;;16.73;100.00
33280;BME280;20403;43.114;12.434;2023-08-07T00:50:28;98606.41;;;16.69;100.00
33280;BME280;20403;43.114;12.434;2023-08-07T00:52:54;98616.16;;;16.69;100.00
33280;BME280;20403;43.114;12.434;2023-08-07T00:55:20;98612.16;;;16.76;100.00
33280;BME280;20403;43.114;12.434;2023-08-07T00:57:46;98607.84;;;16.91;100.00
33280;BME280;20403;43.114;12.434;2023-08-07T01:00:12;98612.31;;;16.95;100.00
33280;BME280;20403;43.114;12.434;2023-08-07T01:02:38;98618.59;;;16.99;100.00
33280;BME280;20403;43.114;12.434;2023-08-07T01:05:04;98611.72;;;17.04;100.00
33280;BME280;20403;43.114;12.434;2023-08-07T01:07:29;98615.72;;;16.96;100.00
33280;BME280;20403;43.114;12.434;2023-08-07T01:09:55;98610.53;;;16.86;100.00
33280;BME280;20403;43.114;12.434;2023-08-07T01:12:30;98614.00;;;16.76;100.00
33280;BME280;20403;43.114;12.434;2023-08-07T01:15:04;98613.22;;;16.75;100.00
33280;BME280;20403;43.114;12.434;2023-08-07T01:17:33;98607.66;;;16.77;100.00
33280;BME280;20403;43.114;12.434;2023-08-07T01:20:00;98617.13;;;16.83;100.00
33280;BME280;20403;43.114;12.434;2023-08-07T01:22:28;98602.69;;;16.70;100.00
33280;BME280;20403;43.114;12.434;2023-08-07T01:24:53;98607.00;;;16.56;100.00
33280;BME280;20403;43.114;12.434;2023-08-07T01:27:32;98610.22;;;16.48;100.00
33280;BME280;20403;43.114;12.434;2023-08-07T01:35:14;98590.56;;;16.35;100.00
33280;BME280;20403;43.114;12.434;2023-08-07T01:37:42;98596.13;;;16.28;100.00
33280;BME280;20403;43.114;12.434;2023-08-07T01:40:08;98593.78;;;16.27;100.00
33280;BME280;20403;43.114;12.434;2023-08-07T01:42:36;98598.25;;;16.21;100.00
33280;BME280;20403;43.114;12.434;2023-08-07T01:45:02;98599.84;;;16.17;100.00
33280;BME280;20403;43.114;12.434;2023-08-07T01:47:27;98598.50;;;16.20;100.00
33280;BME280;20403;43.114;12.434;2023-08-07T01:49:53;98598.22;;;16.26;100.00
33280;BME280;20403;43.114;12.434;2023-08-07T01:52:19;98595.84;;;16.30;100.00
33280;BME280;20403;43.114;12.434;2023-08-07T01:54:45;98598.97;;;16.37;100.00
33280;BME280;20403;43.114;12.434;2023-08-07T01:57:11;98600.53;;;16.38;100.00
33280;BME280;20403;43.114;12.434;2023-08-07T01:59:36;98602.84;;;16.50;100.00
33280;BME280;20403;43.114;12.434;2023-08-07T02:02:01;98604.69;;;16.49;100.00
33280;BME280;20403;43.114;12.434;2023-08-07T02:04:27;98609.41;;;16.52;100.00
33280;BME280;20403;43.114;12.434;2023-08-07T02:06:52;98604.41;;;16.51;100.00
33280;BME280;20403;43.114;12.434;2023-08-07T02:09:18;98607.00;;;16.56;100.00
33280;BME280;20403;43.114;12.434;2023-08-07T02:11:43;98603.34;;;16.57;100.00
33280;BME280;20403;43.114;12.434;2023-08-07T02:14:09;98599.63;;;16.58;100.00
33280;BME280;20403;43.114;12.434;2023-08-07T02:16:35;98604.16;;;16.52;100.00
33280;BME280;20403;43.114;12.434;2023-08-07T02:19:01;98606.03;;;16.42;100.00
33280;BME280;20403;43.114;12.434;2023-08-07T02:21:26;98600.06;;;16.26;100.00
33280;BME280;20403;43.114;12.434;2023-08-07T02:23:51;98600.09;;;16.21;100.00
33280;BME280;20403;43.114;12.434;2023-08-07T02:26:17;98598.50;;;16.20;100.00
33280;BME280;20403;43.114;12.434;2023-08-07T02:28:42;98601.44;;;16.18;100.00
33280;BME280;20403;43.114;12.434;2023-08-07T02:31:08;98605.09;;;16.17;100.00
33280;BME280;20403;43.114;12.434;2023-08-07T02:33:33;98604.91;;;16.08;100.00
33280;BME280;20403;43.114;12.434;2023-08-07T02:35:59;98600.66;;;16.12;100.00
33280;BME280;20403;43.114;12.434;2023-08-07T02:38:25;98599.13;;;16.06;100.00
33280;BME280;20403;43.114;12.434;2023-08-07T02:40:50;98598.09;;;15.92;100.00
33280;BME280;20403;43.114;12.434;2023-08-07T02:43:16;98606.81;;;15.92;100.00
33280;BME280;20403;43.114;12.434;2023-08-07T02:45:41;98608.66;;;15.82;100.00
33280;BME280;20403;43.114;12.434;2023-08-07T02:48:06;98609.44;;;15.92;100.00
33280;BME280;20403;43.114;12.434;2023-08-07T02:50:32;98609.34;;;16.13;100.00
33280;BME280;20403;43.114;12.434;2023-08-07T02:53:01;98602.72;;;16.21;100.00
33280;BME280;20403;43.114;12.434;2023-08-07T02:55:27;98604.56;;;16.25;100.00
33280;BME280;20403;43.114;12.434;2023-08-07T02:57:52;98607.16;;;16.30;100.00
33280;BME280;20403;43.114;12.434;2023-08-07T03:00:18;98605.88;;;16.23;100.00
33280;BME280;20403;43.114;12.434;2023-08-07T03:02:43;98602.19;;;16.24;100.00
33280;BME280;20403;43.114;12.434;2023-08-07T03:05:09;98610.03;;;16.29;100.00
33280;BME280;20403;43.114;12.434;2023-08-07T03:07:34;98611.63;;;16.30;100.00
33280;BME280;20403;43.114;12.434;2023-08-07T03:10:00;98612.16;;;16.32;100.00
33280;BME280;20403;43.114;12.434;2023-08-07T03:12:25;98605.31;;;16.31;100.00
33280;BME280;20403;43.114;12.434;2023-08-07T03:14:51;98604.28;;;16.22;100.00
33280;BME280;20403;43.114;12.434;2023-08-07T03:17:16;98612.91;;;16.37;100.00
33280;BME280;20403;43.114;12.434;2023-08-07T03:19:43;98613.97;;;16.36;100.00
33280;BME280;20403;43.114;12.434;2023-08-07T03:22:09;98600.03;;;16.36;100.00
33280;BME280;20403;43.114;12.434;2023-08-07T03:24:34;98609.56;;;16.22;100.00
33280;BME280;20403;43.114;12.434;2023-08-07T03:27:00;98616.44;;;16.17;100.00
33280;BME280;20403;43.114;12.434;2023-08-07T03:29:25;98618.53;;;16.15;100.00
33280;BME280;20403;43.114;12.434;2023-08-07T03:31:50;98624.59;;;16.16;100.00
33280;BME280;20403;43.114;12.434;2023-08-07T03:34:16;98628.03;;;16.11;100.00
33280;BME280;20403;43.114;12.434;2023-08-07T03:36:41;98628.00;;;16.16;100.00
33280;BME280;20403;43.114;12.434;2023-08-07T03:39:07;98629.63;;;16.07;100.00
33280;BME280;20403;43.114;12.434;2023-08-07T03:41:33;98633.09;;;15.87;100.00
33280;BME280;20403;43.114;12.434;2023-08-07T03:43:58;98631.81;;;15.74;100.00
33280;BME280;20403;43.114;12.434;2023-08-07T03:46:24;98634.19;;;15.61;100.00
33280;BME280;20403;43.114;12.434;2023-08-07T03:48:49;98646.03;;;15.58;100.00
33280;BME280;20403;43.114;12.434;2023-08-07T03:51:15;98645.22;;;15.47;100.00
33280;BME280;20403;43.114;12.434;2023-08-07T03:53:42;98652.31;;;15.57;100.00
33280;BME280;20403;43.114;12.434;2023-08-07T03:56:07;98660.75;;;15.64;100.00
33280;BME280;20403;43.114;12.434;2023-08-07T03:58:33;98656.50;;;15.68;100.00
33280;BME280;20403;43.114;12.434;2023-08-07T04:00:58;98658.09;;;15.64;100.00
33280;BME280;20403;43.114;12.434;2023-08-07T04:03:24;98649.94;;;15.71;100.00
33280;BME280;20403;43.114;12.434;2023-08-07T04:05:53;98655.44;;;15.85;100.00
33280;BME280;20403;43.114;12.434;2023-08-07T04:08:20;98657.28;;;15.89;100.00
33280;BME280;20403;43.114;12.434;2023-08-07T04:13:26;98663.84;;;15.92;100.00
33280;BME280;20403;43.114;12.434;2023-08-07T04:15:52;98655.44;;;15.95;100.00
33280;BME280;20403;43.114;12.434;2023-08-07T04:18:17;98672.03;;;15.85;100.00
33280;BME280;20403;43.114;12.434;2023-08-07T04:20:48;98662.56;;;15.69;100.00
33280;BME280;20403;43.114;12.434;2023-08-07T04:23:14;98666.78;;;15.60;100.00
33280;BME280;20403;43.114;12.434;2023-08-07T04:25:39;98663.91;;;15.51;100.00
33280;BME280;20403;43.114;12.434;2023-08-07T04:28:05;98662.31;;;15.50;100.00
33280;BME280;20403;43.114;12.434;2023-08-07T04:30:30;98668.63;;;15.44;100.00
33280;BME280;20403;43.114;12.434;2023-08-07T04:32:56;98666.78;;;15.49;100.00
33280;BME280;20403;43.114;12.434;2023-08-07T04:35:21;98663.63;;;15.52;100.00
33280;BME280;20403;43.114;12.434;2023-08-07T04:37:46;98662.81;;;15.57;100.00
33280;BME280;20403;43.114;12.434;2023-08-07T04:40:12;98664.16;;;15.65;100.00
33280;BME280;20403;43.114;12.434;2023-08-07T04:42:38;98671.25;;;15.69;100.00
33280;BME280;20403;43.114;12.434;2023-08-07T04:45:03;98663.88;;;15.82;100.00
33280;BME280;20403;43.114;12.434;2023-08-07T04:47:29;98669.63;;;15.89;100.00
33280;BME280;20403;43.114;12.434;2023-08-07T04:49:54;98663.59;;;15.93;100.00
33280;BME280;20403;43.114;12.434;2023-08-07T04:52:20;98670.66;;;16.08;100.00
33280;BME280;20403;43.114;12.434;2023-08-07T04:54:45;98672.47;;;16.18;100.00
33280;BME280;20403;43.114;12.434;2023-08-07T04:57:11;98668.25;;;16.22;100.00
33280;BME280;20403;43.114;12.434;2023-08-07T04:59:36;98672.47;;;16.18;100.00
33280;BME280;20403;43.114;12.434;2023-08-07T05:02:01;98678.75;;;16.27;100.00
33280;BME280;20403;43.114;12.434;2023-08-07T05:04:27;98682.13;;;16.33;100.00
33280;BME280;20403;43.114;12.434;2023-08-07T05:06:52;98678.47;;;16.34;100.00
33280;BME280;20403;43.114;12.434;2023-08-07T05:09:18;98680.53;;;16.37;100.00
33280;BME280;20403;43.114;12.434;2023-08-07T05:11:43;98677.09;;;16.42;100.00
33280;BME280;20403;43.114;12.434;2023-08-07T05:14:08;98677.06;;;16.47;100.00
33280;BME280;20403;43.114;12.434;2023-08-07T05:16:34;98679.16;;;16.55;100.00
33280;BME280;20403;43.114;12.434;2023-08-07T05:18:59;98673.00;;;16.70;100.00
33280;BME280;20403;43.114;12.434;2023-08-07T05:21:25;98676.94;;;16.77;100.00
33280;BME280;20403;43.114;12.434;2023-08-07T05:23:50;98677.16;;;16.86;100.00
33280;BME280;20403;43.114;12.434;2023-08-07T05:26:21;98677.06;;;17.01;100.00
33280;BME280;20403;43.114;12.434;2023-08-07T05:28:46;98681.19;;;17.13;100.00
33280;BME280;20403;43.114;12.434;2023-08-07T05:31:12;98678.78;;;17.16;100.00
33280;BME280;20403;43.114;12.434;2023-08-07T05:33:38;98681.88;;;17.29;100.00
33280;BME280;20403;43.114;12.434;2023-08-07T05:36:03;98681.06;;;17.28;100.00
33280;BME280;20403;43.114;12.434;2023-08-07T05:38:31;98683.06;;;17.41;100.00
33280;BME280;20403;43.114;12.434;2023-08-07T05:40:56;98685.31;;;17.58;100.00
33280;BME280;20403;43.114;12.434;2023-08-07T05:43:22;98685.47;;;17.72;100.00
33280;BME280;20403;43.114;12.434;2023-08-07T05:45:48;98684.03;;;17.85;100.00
33280;BME280;20403;43.114;12.434;2023-08-07T05:48:14;98687.97;;;17.88;100.00
33280;BME280;20403;43.114;12.434;2023-08-07T05:50:42;98687.38;;;17.96;100.00
33280;BME280;20403;43.114;12.434;2023-08-07T05:53:07;98681.78;;;17.97;100.00
33280;BME280;20403;43.114;12.434;2023-08-07T05:55:33;98677.44;;;18.12;100.00
33280;BME280;20403;43.114;12.434;2023-08-07T05:57:59;98680.44;;;18.24;100.00
33280;BME280;20403;43.114;12.434;2023-08-07T06:00:24;98681.66;;;18.32;100.00
33280;BME280;20403;43.114;12.434;2023-08-07T06:02:50;98686.09;;;18.36;100.00
33280;BME280;20403;43.114;12.434;2023-08-07T06:05:16;98682.78;;;18.50;100.00
33280;BME280;20403;43.114;12.434;2023-08-07T06:07:42;98677.06;;;18.61;100.00
33280;BME280;20403;43.114;12.434;2023-08-07T06:10:07;98685.94;;;18.71;100.00
33280;BME280;20403;43.114;12.434;2023-08-07T06:12:33;98674.19;;;18.82;100.00
33280;BME280;20403;43.114;12.434;2023-08-07T06:14:58;98675.13;;;18.91;100.00
33280;BME280;20403;43.114;12.434;2023-08-07T06:17:24;98682.47;;;18.94;100.00
33280;BME280;20403;43.114;12.434;2023-08-07T06:19:49;98690.25;;;19.04;100.00
33280;BME280;20403;43.114;12.434;2023-08-07T06:22:14;98696.66;;;19.17;100.00
33280;BME280;20403;43.114;12.434;2023-08-07T06:24:40;98693.66;;;19.24;100.00
33280;BME280;20403;43.114;12.434;2023-08-07T06:27:05;98696.56;;;19.41;100.00
33280;BME280;20403;43.114;12.434;2023-08-07T06:29:31;98692.75;;;19.61;100.00
33280;BME280;20403;43.114;12.434;2023-08-07T06:31:56;98696.06;;;19.72;100.00
33280;BME280;20403;43.114;12.434;2023-08-07T06:34:22;98691.56;;;19.86;100.00
33280;BME280;20403;43.114;12.434;2023-08-07T06:36:47;98693.66;;;19.89;100.00
33280;BME280;20403;43.114;12.434;2023-08-07T06:39:12;98692.34;;;20.01;100.00
33280;BME280;20403;43.114;12.434;2023-08-07T06:41:38;98699.25;;;20.15;100.00
33280;BME280;20403;43.114;12.434;2023-08-07T06:44:04;98699.34;;;20.24;100.00
33280;BME280;20403;43.114;12.434;2023-08-07T06:46:30;98700.78;;;20.44;100.00
33280;BME280;20403;43.114;12.434;2023-08-07T06:48:55;98703.91;;;20.46;100.00
33280;BME280;20403;43.114;12.434;2023-08-07T06:51:20;98703.63;;;20.48;100.00
33280;BME280;20403;43.114;12.434;2023-08-07T06:53:46;98700.22;;;20.61;100.00
33280;BME280;20403;43.114;12.434;2023-08-07T06:56:11;98699.13;;;20.62;100.00
33280;BME280;20403;43.114;12.434;2023-08-07T06:58:37;98700.34;;;20.78;100.00
33280;BME280;20403;43.114;12.434;2023-08-07T07:01:02;98696.19;;;20.86;100.00
33280;BME280;20403;43.114;12.434;2023-08-07T07:03:27;98694.78;;;21.03;100.00
33280;BME280;20403;43.114;12.434;2023-08-07T07:05:53;98690.72;;;21.19;100.00
33280;BME280;20403;43.114;12.434;2023-08-07T07:08:18;98689.84;;;21.32;100.00
33280;BME280;20403;43.114;12.434;2023-08-07T07:10:44;98697.16;;;21.49;100.00
33280;BME280;20403;43.114;12.434;2023-08-07T07:13:09;98690.38;;;21.66;100.00
33280;BME280;20403;43.114;12.434;2023-08-07T07:15:35;98695.75;;;21.83;100.00
33280;BME280;20403;43.114;12.434;2023-08-07T07:18:01;98699.09;;;21.89;100.00
33280;BME280;20403;43.114;12.434;2023-08-07T07:20:27;98700.53;;;22.03;100.00
33280;BME280;20403;43.114;12.434;2023-08-07T07:22:52;98705.59;;;22.14;100.00
33280;BME280;20403;43.114;12.434;2023-08-07T07:25:18;98700.00;;;22.24;100.00
33280;BME280;20403;43.114;12.434;2023-08-07T07:27:43;98697.84;;;22.26;100.00
33280;BME280;20403;43.114;12.434;2023-08-07T07:30:09;98689.72;;;22.31;100.00
33280;BME280;20403;43.114;12.434;2023-08-07T07:32:35;98697.75;;;22.49;100.00
33280;BME280;20403;43.114;12.434;2023-08-07T07:35:01;98689.94;;;22.70;100.00
33280;BME280;20403;43.114;12.434;2023-08-07T07:37:26;98697.13;;;22.86;100.00
33280;BME280;20403;43.114;12.434;2023-08-07T07:39:52;98702.28;;;22.92;100.00
33280;BME280;20403;43.114;12.434;2023-08-07T07:42:17;98701.81;;;22.98;100.00
33280;BME280;20403;43.114;12.434;2023-08-07T07:44:43;98704.19;;;23.17;100.00
33280;BME280;20403;43.114;12.434;2023-08-07T07:47:08;98703.88;;;23.19;100.00
33280;BME280;20403;43.114;12.434;2023-08-07T07:49:33;98700.88;;;23.29;100.00
33280;BME280;20403;43.114;12.434;2023-08-07T07:51:59;98713.41;;;23.28;100.00
33280;BME280;20403;43.114;12.434;2023-08-07T07:54:25;98707.00;;;23.30;100.00
33280;BME280;20403;43.114;12.434;2023-08-07T07:56:50;98709.50;;;23.35;100.00
33280;BME280;20403;43.114;12.434;2023-08-07T07:59:16;98711.69;;;23.50;100.00
33280;BME280;20403;43.114;12.434;2023-08-07T08:01:42;98717.41;;;23.78;100.00
33280;BME280;20403;43.114;12.434;2023-08-07T08:04:07;98718.16;;;23.96;100.00
33280;BME280;20403;43.114;12.434;2023-08-07T08:06:35;98719.59;;;23.85;100.00
33280;BME280;20403;43.114;12.434;2023-08-07T08:09:00;98724.09;;;23.93;100.00
33280;BME280;20403;43.114;12.434;2023-08-07T08:11:29;98727.44;;;24.20;100.00
33280;BME280;20403;43.114;12.434;2023-08-07T08:13:54;98722.78;;;24.38;100.00
33280;BME280;20403;43.114;12.434;2023-08-07T08:16:20;98733.59;;;24.41;100.00
33280;BME280;20403;43.114;12.434;2023-08-07T08:18:45;98725.13;;;24.69;100.00
33280;BME280;20403;43.114;12.434;2023-08-07T08:21:11;98731.44;;;24.85;100.00
33280;BME280;20403;43.114;12.434;2023-08-07T08:23:36;98729.31;;;24.79;100.00
33280;BME280;20403;43.114;12.434;2023-08-07T08:26:02;98733.84;;;24.78;100.00
33280;BME280;20403;43.114;12.434;2023-08-07T08:28:27;98732.16;;;24.94;100.00
33280;BME280;20403;43.114;12.434;2023-08-07T08:30:53;98736.00;;;25.06;99.87
33280;BME280;20403;43.114;12.434;2023-08-07T08:33:18;98732.16;;;25.15;100.00
33280;BME280;20403;43.114;12.434;2023-08-07T08:35:43;98734.88;;;25.07;100.00
33280;BME280;20403;43.114;12.434;2023-08-07T08:38:09;98736.91;;;25.10;100.00
33280;BME280;20403;43.114;12.434;2023-08-07T08:40:36;98735.22;;;25.05;100.00
33280;BME280;20403;43.114;12.434;2023-08-07T08:43:04;98731.78;;;25.26;100.00
33280;BME280;20403;43.114;12.434;2023-08-07T08:45:30;98730.88;;;25.55;100.00
33280;BME280;20403;43.114;12.434;2023-08-07T08:48:02;98732.78;;;25.67;100.00
33280;BME280;20403;43.114;12.434;2023-08-07T08:50:29;98734.28;;;25.76;96.55
33280;BME280;20403;43.114;12.434;2023-08-07T08:52:56;98733.69;;;25.71;93.24
33280;BME280;20403;43.114;12.434;2023-08-07T08:55:22;98728.88;;;25.97;96.34
33280;BME280;20403;43.114;12.434;2023-08-07T08:57:48;98720.06;;;26.22;93.38
33280;BME280;20403;43.114;12.434;2023-08-07T09:00:14;98731.09;;;26.08;84.24
33280;BME280;20403;43.114;12.434;2023-08-07T09:02:47;98734.53;;;26.08;99.94
33280;BME280;20403;43.114;12.434;2023-08-07T09:05:17;98731.09;;;26.32;100.00
33280;BME280;20403;43.114;12.434;2023-08-07T09:07:44;98731.41;;;26.06;80.95
33280;BME280;20403;43.114;12.434;2023-08-07T09:10:12;98738.22;;;25.91;87.52
33280;BME280;20403;43.114;12.434;2023-08-07T09:12:41;98729.97;;;25.96;96.39
33280;BME280;20403;43.114;12.434;2023-08-07T09:15:09;98731.00;;;26.16;92.81
33280;BME280;20403;43.114;12.434;2023-08-07T09:17:40;98722.84;;;26.37;83.52
33280;BME280;20403;43.114;12.434;2023-08-07T09:20:07;98729.22;;;26.57;81.55
33280;BME280;20403;43.114;12.434;2023-08-07T09:22:36;98728.56;;;26.89;80.05
33280;BME280;20403;43.114;12.434;2023-08-07T09:25:02;98726.78;;;26.93;82.62
33280;BME280;20403;43.114;12.434;2023-08-07T09:27:28;98720.34;;;27.10;85.29
33280;BME280;20403;43.114;12.434;2023-08-07T09:29:58;98729.19;;;27.38;78.31
33280;BME280;20403;43.114;12.434;2023-08-07T09:32:23;98727.09;;;27.32;76.54
33280;BME280;20403;43.114;12.434;2023-08-07T09:34:50;98728.47;;;27.26;73.52
33280;BME280;20403;43.114;12.434;2023-08-07T09:37:17;98728.75;;;27.36;74.00
33280;BME280;20403;43.114;12.434;2023-08-07T09:39:42;98726.03;;;27.64;75.82
33280;BME280;20403;43.114;12.434;2023-08-07T09:42:15;98728.59;;;27.89;71.04
33280;BME280;20403;43.114;12.434;2023-08-07T09:44:40;98726.75;;;27.93;72.02
33280;BME280;20403;43.114;12.434;2023-08-07T09:47:18;98730.34;;;27.69;71.24
33280;BME280;20403;43.114;12.434;2023-08-07T09:49:45;98731.88;;;27.54;73.89
33280;BME280;20403;43.114;12.434;2023-08-07T09:52:12;98723.25;;;27.61;83.31
33280;BME280;20403;43.114;12.434;2023-08-07T09:54:41;98725.28;;;27.96;79.27
33280;BME280;20403;43.114;12.434;2023-08-07T09:57:06;98726.31;;;28.23;73.96
33280;BME280;20403;43.114;12.434;2023-08-07T09:59:33;98726.19;;;28.35;75.66
33280;BME280;20403;43.114;12.434;2023-08-07T10:02:02;98721.34;;;28.41;70.44
33280;BME280;20403;43.114;12.434;2023-08-07T10:04:28;98721.94;;;28.50;70.66
33280;BME280;20403;43.114;12.434;2023-08-07T10:06:55;98725.34;;;28.47;72.34
33280;BME280;20403;43.114;12.434;2023-08-07T10:09:21;98734.47;;;28.46;69.99
33280;BME280;20403;43.114;12.434;2023-08-07T10:11:50;98732.19;;;28.28;69.34
33280;BME280;20403;43.114;12.434;2023-08-07T10:14:16;98733.88;;;28.53;68.79
33280;BME280;20403;43.114;12.434;2023-08-07T10:16:42;98748.50;;;28.55;69.71
33280;BME280;20403;43.114;12.434;2023-08-07T10:19:08;98746.81;;;28.47;64.89
33280;BME280;20403;43.114;12.434;2023-08-07T10:21:41;98748.72;;;28.31;66.88
33280;BME280;20403;43.114;12.434;2023-08-07T10:24:08;98740.56;;;28.27;72.92
33280;BME280;20403;43.114;12.434;2023-08-07T10:26:35;98741.50;;;28.35;67.11
33280;BME280;20403;43.114;12.434;2023-08-07T10:29:03;98740.59;;;28.62;67.99
33280;BME280;20403;43.114;12.434;2023-08-07T10:31:30;98744.00;;;28.59;63.26
33280;BME280;20403;43.114;12.434;2023-08-07T10:33:56;98742.91;;;28.80;65.15
33280;BME280;20403;43.114;12.434;2023-08-07T10:36:22;98738.97;;;28.93;63.62
33280;BME280;20403;43.114;12.434;2023-08-07T10:38:49;98736.53;;;28.88;63.96
33280;BME280;20403;43.114;12.434;2023-08-07T10:41:17;98737.97;;;28.82;65.82
33280;BME280;20403;43.114;12.434;2023-08-07T10:43:44;98733.06;;;28.87;64.18
33280;BME280;20403;43.114;12.434;2023-08-07T10:46:20;98738.78;;;28.66;67.81
33280;BME280;20403;43.114;12.434;2023-08-07T10:48:54;98737.44;;;28.76;67.78
33280;BME280;20403;43.114;12.434;2023-08-07T10:51:20;98737.97;;;28.82;64.55
33280;BME280;20403;43.114;12.434;2023-08-07T10:53:49;98734.28;;;28.90;61.83
33280;BME280;20403;43.114;12.434;2023-08-07T10:56:34;98734.44;;;29.59;61.37
33280;BME280;20403;43.114;12.434;2023-08-07T10:59:11;98736.28;;;29.98;58.42
33280;BME280;20403;43.114;12.434;2023-08-07T11:04:08;98721.78;;;29.79;56.60
33280;BME280;20403;43.114;12.434;2023-08-07T11:06:36;98724.47;;;29.60;63.34
33280;BME280;20403;43.114;12.434;2023-08-07T11:09:04;98716.97;;;28.87;58.24
33280;BME280;20403;43.114;12.434;2023-08-07T11:11:36;98720.66;;;28.99;59.94
33280;BME280;20403;43.114;12.434;2023-08-07T11:14:15;98717.56;;;29.16;59.97
33280;BME280;20403;43.114;12.434;2023-08-07T11:16:41;98725.38;;;28.66;56.69
33280;BME280;20403;43.114;12.434;2023-08-07T11:19:06;98717.75;;;28.17;61.78
33280;BME280;20403;43.114;12.434;2023-08-07T11:21:33;98712.75;;;28.51;60.51
33280;BME280;20403;43.114;12.434;2023-08-07T11:23:59;98715.19;;;28.95;60.93
33280;BME280;20403;43.114;12.434;2023-08-07T11:26:24;98704.88;;;29.36;62.33
33280;BME280;20403;43.114;12.434;2023-08-07T11:28:51;98701.34;;;29.74;60.32
33280;BME280;20403;43.114;12.434;2023-08-07T11:31:21;98701.50;;;29.85;58.27
33280;BME280;20403;43.114;12.434;2023-08-07T11:33:50;98698.97;;;29.69;64.21
33280;BME280;20403;43.114;12.434;2023-08-07T11:36:16;98697.56;;;29.56;59.98
33280;BME280;20403;43.114;12.434;2023-08-07T11:38:43;98692.38;;;30.16;55.72
33280;BME280;20403;43.114;12.434;2023-08-07T11:41:09;98696.19;;;30.39;54.23
33280;BME280;20403;43.114;12.434;2023-08-07T11:43:35;98697.44;;;30.22;54.42
33280;BME280;20403;43.114;12.434;2023-08-07T11:46:03;98699.25;;;30.41;54.03
33280;BME280;20403;43.114;12.434;2023-08-07T11:48:30;98691.97;;;30.71;52.72
33280;BME280;20403;43.114;12.434;2023-08-07T11:50:57;98692.88;;;30.83;51.71
33280;BME280;20403;43.114;12.434;2023-08-07T11:53:24;98697.13;;;30.53;51.15
33280;BME280;20403;43.114;12.434;2023-08-07T11:56:02;98706.88;;;30.35;52.34
33280;BME280;20403;43.114;12.434;2023-08-07T11:58:34;98704.72;;;29.94;51.90
33280;BME280;20403;43.114;12.434;2023-08-07T12:01:04;98700.47;;;29.47;51.12
33280;BME280;20403;43.114;12.434;2023-08-07T12:03:31;98695.47;;;29.69;54.79
33280;BME280;20403;43.114;12.434;2023-08-07T12:05:58;98700.94;;;29.99;53.93
33280;BME280;20403;43.114;12.434;2023-08-07T12:08:31;98692.88;;;29.99;51.32
33280;BME280;20403;43.114;12.434;2023-08-07T12:10:57;98695.78;;;29.87;50.24
33280;BME280;20403;43.114;12.434;2023-08-07T12:13:26;98696.13;;;29.85;51.04
33280;BME280;20403;43.114;12.434;2023-08-07T12:15:55;98688.25;;;29.73;51.63
33280;BME280;20403;43.114;12.434;2023-08-07T12:18:22;98689.91;;;29.16;49.96
33280;BME280;20403;43.114;12.434;2023-08-07T12:20:51;98673.50;;;29.40;48.16
33280;BME280;20403;43.114;12.434;2023-08-07T12:23:18;98679.72;;;29.90;48.56
33280;BME280;20403;43.114;12.434;2023-08-07T12:25:45;98664.59;;;30.09;45.96
33280;BME280;20403;43.114;12.434;2023-08-07T12:28:10;98658.81;;;30.33;44.54
33280;BME280;20403;43.114;12.434;2023-08-07T12:30:37;98667.13;;;30.51;45.77
33280;BME280;20403;43.114;12.434;2023-08-07T12:33:03;98657.50;;;30.50;44.19
33280;BME280;20403;43.114;12.434;2023-08-07T12:35:31;98652.09;;;30.81;43.45
33280;BME280;20403;43.114;12.434;2023-08-07T12:37:57;98645.78;;;30.99;41.79
33280;BME280;20403;43.114;12.434;2023-08-07T12:40:23;98642.47;;;31.17;42.97
33280;BME280;20403;43.114;12.434;2023-08-07T12:42:49;98637.47;;;31.19;42.51
33280;BME280;20403;43.114;12.434;2023-08-07T12:45:15;98638.81;;;30.98;42.04
33280;BME280;20403;43.114;12.434;2023-08-07T12:47:42;98633.84;;;30.67;39.39
33280;BME280;20403;43.114;12.434;2023-08-07T12:50:08;98639.22;;;30.33;39.17